APX969 KTZR-KDAY
Flight info
| Callsign | APX969 |
|---|---|
| Flight time | 0h 14m |
| Altitude | 12000 |
| Route | TARRY |
| Aircraft | C750/M-SBDE3FGHRWXY/S |
Departure
| Time | 2026-05-09 00:19 |
|---|---|
| Airport | Bolton Field (KTZR) |
Arrival
| Time | 2026-05-09 00:34 |
|---|---|
| Airport | James M. Cox Dayton International Airport (KDAY) |
| Time | Latitude | Longitude | Altitude | Speed | Heading |
|---|---|---|---|---|---|
| 2026-05-08 23:56 | 39.90510 | -83.13645 | 913 ft | 0 kts | 129° |
| 2026-05-09 00:16 | 39.90507 | -83.13638 | 913 ft | 4 kts | 125° |
| 2026-05-09 00:16 | 39.90512 | -83.13631 | 913 ft | 2 kts | 31° |
| 2026-05-09 00:16 | 39.90538 | -83.13632 | 913 ft | 6 kts | 12° |
| 2026-05-09 00:16 | 39.90590 | -83.13586 | 914 ft | 13 kts | 40° |
| 2026-05-09 00:17 | 39.90584 | -83.13499 | 913 ft | 9 kts | 122° |
| 2026-05-09 00:17 | 39.90571 | -83.13428 | 912 ft | 8 kts | 55° |
| 2026-05-09 00:17 | 39.90621 | -83.13386 | 911 ft | 9 kts | 32° |
| 2026-05-09 00:17 | 39.90681 | -83.13337 | 909 ft | 10 kts | 32° |
| 2026-05-09 00:18 | 39.90741 | -83.13288 | 910 ft | 10 kts | 32° |
| 2026-05-09 00:18 | 39.90779 | -83.13237 | 910 ft | 5 kts | 90° |
| 2026-05-09 00:18 | 39.90763 | -83.13199 | 910 ft | 7 kts | 123° |
| 2026-05-09 00:18 | 39.90728 | -83.13195 | 910 ft | 5 kts | 212° |
| 2026-05-09 00:19 | 39.90718 | -83.13204 | 910 ft | 1 kts | 211° |
| 2026-05-09 00:19 | 39.90637 | -83.13269 | 909 ft | 48 kts | 212° |
| 2026-05-09 00:19 | 39.89998 | -83.13788 | 949 ft | 146 kts | 212° |
| 2026-05-09 00:19 | 39.89136 | -83.14489 | 1704 ft | 149 kts | 213° |
| 2026-05-09 00:20 | 39.88418 | -83.15465 | 2486 ft | 157 kts | 245° |
| 2026-05-09 00:20 | 39.88427 | -83.16965 | 3003 ft | 187 kts | 281° |
| 2026-05-09 00:20 | 39.88842 | -83.18818 | 3088 ft | 238 kts | 284° |
| 2026-05-09 00:20 | 39.89381 | -83.20889 | 3032 ft | 242 kts | 288° |
| 2026-05-09 00:21 | 39.89894 | -83.22983 | 3013 ft | 243 kts | 283° |
| 2026-05-09 00:21 | 39.90325 | -83.25115 | 3007 ft | 245 kts | 283° |
| 2026-05-09 00:21 | 39.90804 | -83.27258 | 3006 ft | 246 kts | 284° |
| 2026-05-09 00:21 | 39.91323 | -83.29443 | 3375 ft | 259 kts | 284° |
| 2026-05-09 00:22 | 39.91823 | -83.31577 | 4995 ft | 242 kts | 282° |
| 2026-05-09 00:22 | 39.92314 | -83.33729 | 6114 ft | 251 kts | 281° |
| 2026-05-09 00:22 | 39.92814 | -83.35916 | 7268 ft | 252 kts | 282° |
| 2026-05-09 00:22 | 39.93319 | -83.38099 | 8579 ft | 252 kts | 282° |
| 2026-05-09 00:23 | 39.93823 | -83.40287 | 9866 ft | 253 kts | 282° |
| 2026-05-09 00:23 | 39.94334 | -83.42525 | 10584 ft | 268 kts | 283° |
| 2026-05-09 00:23 | 39.94892 | -83.44975 | 10865 ft | 296 kts | 283° |
| 2026-05-09 00:23 | 39.95508 | -83.47658 | 11141 ft | 318 kts | 284° |
| 2026-05-09 00:24 | 39.96148 | -83.50430 | 11887 ft | 324 kts | 284° |
| 2026-05-09 00:24 | 39.96812 | -83.53338 | 12010 ft | 347 kts | 284° |
| 2026-05-09 00:24 | 39.97518 | -83.56442 | 12011 ft | 364 kts | 285° |
| 2026-05-09 00:24 | 39.98245 | -83.59628 | 12008 ft | 369 kts | 285° |
| 2026-05-09 00:25 | 39.98945 | -83.62679 | 11668 ft | 333 kts | 285° |
| 2026-05-09 00:25 | 39.99583 | -83.65471 | 11269 ft | 316 kts | 284° |
| 2026-05-09 00:25 | 40.00194 | -83.68184 | 10878 ft | 300 kts | 284° |
| 2026-05-09 00:25 | 40.00764 | -83.70684 | 10480 ft | 277 kts | 283° |
| 2026-05-09 00:26 | 40.01292 | -83.73011 | 10092 ft | 261 kts | 283° |
| 2026-05-09 00:26 | 40.01798 | -83.75258 | 9700 ft | 256 kts | 282° |
| 2026-05-09 00:26 | 40.02298 | -83.77480 | 9214 ft | 254 kts | 282° |
| 2026-05-09 00:26 | 40.02797 | -83.79689 | 8734 ft | 253 kts | 282° |
| 2026-05-09 00:27 | 40.03294 | -83.81888 | 8270 ft | 253 kts | 282° |
| 2026-05-09 00:27 | 40.03791 | -83.84093 | 7810 ft | 253 kts | 282° |
| 2026-05-09 00:27 | 40.04286 | -83.86292 | 7363 ft | 253 kts | 281° |
| 2026-05-09 00:27 | 40.04782 | -83.88498 | 6922 ft | 253 kts | 281° |
| 2026-05-09 00:28 | 40.05041 | -83.90738 | 6407 ft | 248 kts | 268° |
| 2026-05-09 00:28 | 40.04998 | -83.92970 | 5899 ft | 244 kts | 263° |
| 2026-05-09 00:28 | 40.04746 | -83.95113 | 5271 ft | 238 kts | 246° |
| 2026-05-09 00:28 | 40.03897 | -83.96799 | 4627 ft | 210 kts | 233° |
| 2026-05-09 00:29 | 40.03030 | -83.98389 | 3992 ft | 213 kts | 237° |
| 2026-05-09 00:29 | 40.02324 | -83.99972 | 3260 ft | 189 kts | 242° |
| 2026-05-09 00:29 | 40.01711 | -84.01513 | 2590 ft | 194 kts | 240° |
| 2026-05-09 00:29 | 40.01028 | -84.02869 | 2605 ft | 169 kts | 238° |
| 2026-05-09 00:30 | 40.00381 | -84.04100 | 2599 ft | 164 kts | 237° |
| 2026-05-09 00:30 | 39.99733 | -84.05322 | 2641 ft | 164 kts | 237° |
| 2026-05-09 00:30 | 39.99081 | -84.06550 | 2756 ft | 164 kts | 237° |
| 2026-05-09 00:30 | 39.98432 | -84.07779 | 2877 ft | 165 kts | 237° |
| 2026-05-09 00:31 | 39.97782 | -84.09007 | 2989 ft | 166 kts | 237° |
| 2026-05-09 00:31 | 39.97126 | -84.10243 | 2997 ft | 166 kts | 237° |
| 2026-05-09 00:31 | 39.96470 | -84.11490 | 2852 ft | 164 kts | 236° |
| 2026-05-09 00:31 | 39.95813 | -84.12728 | 2638 ft | 166 kts | 237° |
| 2026-05-09 00:32 | 39.95157 | -84.13963 | 2416 ft | 167 kts | 237° |
| 2026-05-09 00:32 | 39.94498 | -84.15212 | 2185 ft | 168 kts | 238° |
| 2026-05-09 00:32 | 39.93833 | -84.16468 | 1961 ft | 171 kts | 237° |
| 2026-05-09 00:32 | 39.93162 | -84.17732 | 1720 ft | 172 kts | 236° |
| 2026-05-09 00:33 | 39.92503 | -84.18969 | 1487 ft | 152 kts | 237° |
| 2026-05-09 00:33 | 39.91965 | -84.20011 | 1343 ft | 128 kts | 239° |
| 2026-05-09 00:33 | 39.91451 | -84.20930 | 1149 ft | 119 kts | 238° |
| 2026-05-09 00:33 | 39.91002 | -84.21799 | 1018 ft | 112 kts | 239° |
| 2026-05-09 00:34 | 39.90606 | -84.22553 | 1011 ft | 82 kts | 234° |
| 2026-05-09 00:34 | 39.90381 | -84.22975 | 1006 ft | 46 kts | 237° |
| 2026-05-09 00:34 | 39.90215 | -84.23280 | 1010 ft | 28 kts | 234° |
| 2026-05-09 00:34 | 39.90122 | -84.23258 | 1012 ft | 11 kts | 117° |
| 2026-05-09 00:35 | 39.90111 | -84.23225 | 1012 ft | 0 kts | 111° |
| 2026-05-09 00:35 | 39.90109 | -84.23220 | 1012 ft | 2 kts | 108° |
| 2026-05-09 00:35 | 39.90116 | -84.23191 | 1012 ft | 5 kts | 65° |
| 2026-05-09 00:35 | 39.90142 | -84.23137 | 1012 ft | 9 kts | 53° |
| 2026-05-09 00:36 | 39.90188 | -84.23053 | 1011 ft | 14 kts | 56° |
| 2026-05-09 00:36 | 39.90256 | -84.22925 | 1008 ft | 20 kts | 54° |
| 2026-05-09 00:36 | 39.90311 | -84.22823 | 1009 ft | 21 kts | 55° |
| 2026-05-09 00:36 | 39.90393 | -84.22669 | 1008 ft | 21 kts | 55° |
| 2026-05-09 00:37 | 39.90472 | -84.22520 | 1010 ft | 19 kts | 55° |
| 2026-05-09 00:37 | 39.90547 | -84.22379 | 1009 ft | 19 kts | 55° |
| 2026-05-09 00:37 | 39.90604 | -84.22273 | 1008 ft | 12 kts | 55° |
| 2026-05-09 00:37 | 39.90650 | -84.22182 | 1007 ft | 12 kts | 56° |
| 2026-05-09 00:38 | 39.90703 | -84.22080 | 1004 ft | 15 kts | 56° |
| 2026-05-09 00:38 | 39.90765 | -84.21966 | 1002 ft | 16 kts | 54° |
| 2026-05-09 00:38 | 39.90828 | -84.21849 | 1001 ft | 16 kts | 56° |
| 2026-05-09 00:38 | 39.90876 | -84.21732 | 1000 ft | 10 kts | 108° |
| 2026-05-09 00:39 | 39.90828 | -84.21682 | 1000 ft | 8 kts | 142° |
| 2026-05-09 00:39 | 39.90791 | -84.21630 | 999 ft | 8 kts | 127° |
| 2026-05-09 00:39 | 39.90771 | -84.21564 | 999 ft | 9 kts | 104° |
| 2026-05-09 00:39 | 39.90767 | -84.21480 | 1001 ft | 10 kts | 84° |
| 2026-05-09 00:40 | 39.90771 | -84.21393 | 1004 ft | 10 kts | 88° |
| 2026-05-09 00:40 | 39.90771 | -84.21305 | 1006 ft | 10 kts | 90° |
| 2026-05-09 00:40 | 39.90771 | -84.21204 | 1006 ft | 13 kts | 89° |
| 2026-05-09 00:41 | 39.90741 | -84.21062 | 1007 ft | 9 kts | 153° |
| 2026-05-09 00:41 | 39.90656 | -84.21005 | 1009 ft | 18 kts | 153° |
| 2026-05-09 00:41 | 39.90572 | -84.20897 | 1010 ft | 17 kts | 95° |
| 2026-05-09 00:41 | 39.90555 | -84.20869 | 1010 ft | 1 kts | 266° |
| 2026-05-09 00:42 | 39.90555 | -84.20877 | 1010 ft | 0 kts | 265° |